Aeroporto :
LOGIN :

Iscrizione | Disclaimer

   EN    FR    IT 

 










Sommario :    VFR   VFR Marginale   IFR   IFR Intensivo   IFR Molto Intensivo
Visibilità : 
Base nubi : 
>= 8 km
>= 3000ft
5 / 8 km
1000 / 3000 ft
1500m / 5 km
500 / 1000 ft
800 / 1500m
200 / 500 ft
< 800m
< 200 ft
Simboli :   Temporali  Nebbia  Neve Forte  Precipitazioni Forti  Vento > 20 kt
SIGMETs :   Varie  Temporali  Ghiacco  Turbolenza  Onda orograficha  Ceneri Vulcaniche






- Altitudine del aeroporto : 122 ft
- Codice IATA : TXL


EDDT - Berlin Tegel Int.

ULTIMO METAR :
  • 261620Z 03009KT 350V070 CAVOK 20/04 Q1033 NOSIG

METARs OBSOLETI :
  • 261550Z 01007KT 320V090 CAVOK 19/04 Q1033 NOSIG
  • 261520Z 03007KT 340V070 CAVOK 20/04 Q1033 NOSIG
  • 261450Z 02008KT 320V060 CAVOK 21/03 Q1033 NOSIG
  • 261420Z 02007KT 340V070 CAVOK 21/04 Q1033 NOSIG
  • 261350Z 35007KT 270V070 CAVOK 21/05 Q1033 NOSIG

TAF TAF EDDT
Valido dal 26 a 12 ore il 27 a 12 ore UTC


261100Z 2612/2712 03006KT CAVOK
BECMG 2619/2621 VRB01KT
BECMG 2707/2709 28006KT



MetMap, La meteo Aeronautica in un colpo d'occhio ! - Copyright ORBIFLY Dicembre 2007 - Disclaimer

ORBIFLY MET'MAP TEAM :

Programmazione e sviluppo : Alexandra Zaïnal
Concezione : Baudouin d'Aumeries
Aiuto per la programmazione : Marc-Olivier Méhu
Supporto tecnico e logistico : Manuel Goepfert
Aiuto per la traduzione : Arnaldo La Scala

Contatto : metmap@orbifly.com




FONTI E CREDITI :

   NOAA